sensor_id;sensor_type;location;lat;lon;timestamp;pressure;altitude;pressure_sealevel;temperature;humidity
50087;BME280;35967;50.718;7.050;2024-03-08T00:02:44;100908.66;;;4.25;71.29
50087;BME280;35967;50.718;7.050;2024-03-08T00:12:48;100897.41;;;4.02;70.86
50087;BME280;35967;50.718;7.050;2024-03-08T00:22:54;100893.25;;;4.10;71.69
50087;BME280;35967;50.718;7.050;2024-03-08T00:32:59;100883.00;;;4.05;73.00
50087;BME280;35967;50.718;7.050;2024-03-08T00:43:05;100881.25;;;3.98;72.68
50087;BME280;35967;50.718;7.050;2024-03-08T00:53:08;100870.78;;;3.64;73.33
50087;BME280;35967;50.718;7.050;2024-03-08T01:03:14;100861.63;;;3.85;72.96
50087;BME280;35967;50.718;7.050;2024-03-08T01:13:17;100843.56;;;3.60;73.11
50087;BME280;35967;50.718;7.050;2024-03-08T01:23:22;100837.59;;;3.56;73.30
50087;BME280;35967;50.718;7.050;2024-03-08T01:33:26;100825.00;;;3.72;73.50
50087;BME280;35967;50.718;7.050;2024-03-08T01:43:31;100817.03;;;3.35;76.27
50087;BME280;35967;50.718;7.050;2024-03-08T01:53:35;100801.56;;;3.16;77.94
50087;BME280;35967;50.718;7.050;2024-03-08T02:03:40;100791.34;;;3.10;78.32
50087;BME280;35967;50.718;7.050;2024-03-08T02:13:45;100787.47;;;2.69;80.19
50087;BME280;35967;50.718;7.050;2024-03-08T02:23:50;100783.19;;;2.65;80.46
50087;BME280;35967;50.718;7.050;2024-03-08T02:33:54;100773.66;;;2.47;82.17
50087;BME280;35967;50.718;7.050;2024-03-08T02:43:58;100762.34;;;2.25;84.05
50087;BME280;35967;50.718;7.050;2024-03-08T02:54:02;100760.66;;;2.25;83.89
50087;BME280;35967;50.718;7.050;2024-03-08T03:04:07;100752.78;;;2.07;85.90
50087;BME280;35967;50.718;7.050;2024-03-08T03:14:10;100740.03;;;2.02;85.64
50087;BME280;35967;50.718;7.050;2024-03-08T03:24:14;100734.69;;;1.85;86.15
50087;BME280;35967;50.718;7.050;2024-03-08T03:34:18;100733.13;;;1.93;85.47
50087;BME280;35967;50.718;7.050;2024-03-08T03:44:23;100724.50;;;1.82;85.68
50087;BME280;35967;50.718;7.050;2024-03-08T03:54:26;100718.88;;;2.03;84.82
50087;BME280;35967;50.718;7.050;2024-03-08T04:04:33;100724.59;;;1.88;85.76
50087;BME280;35967;50.718;7.050;2024-03-08T04:14:38;100713.38;;;1.73;86.94
50087;BME280;35967;50.718;7.050;2024-03-08T04:24:43;100708.88;;;1.55;86.85
50087;BME280;35967;50.718;7.050;2024-03-08T04:34:46;100700.34;;;1.50;87.95
50087;BME280;35967;50.718;7.050;2024-03-08T04:44:51;100696.09;;;1.49;88.26
50087;BME280;35967;50.718;7.050;2024-03-08T04:54:55;100683.06;;;1.28;87.51
50087;BME280;35967;50.718;7.050;2024-03-08T05:04:59;100677.03;;;1.21;89.47
50087;BME280;35967;50.718;7.050;2024-03-08T05:15:05;100678.81;;;1.25;89.99
50087;BME280;35967;50.718;7.050;2024-03-08T05:25:10;100652.41;;;1.12;90.63
50087;BME280;35967;50.718;7.050;2024-03-08T05:35:14;100657.63;;;1.21;90.33
50087;BME280;35967;50.718;7.050;2024-03-08T05:45:19;100654.69;;;0.98;90.52
50087;BME280;35967;50.718;7.050;2024-03-08T05:55:22;100649.63;;;0.98;91.27
50087;BME280;35967;50.718;7.050;2024-03-08T06:05:29;100635.25;;;0.97;90.23
50087;BME280;35967;50.718;7.050;2024-03-08T06:15:32;100634.97;;;1.34;92.11
50087;BME280;35967;50.718;7.050;2024-03-08T06:25:38;100633.84;;;1.16;91.45
50087;BME280;35967;50.718;7.050;2024-03-08T06:35:41;100633.19;;;1.26;93.46
50087;BME280;35967;50.718;7.050;2024-03-08T06:55:52;100631.69;;;2.02;90.86
50087;BME280;35967;50.718;7.050;2024-03-08T07:05:55;100618.78;;;2.58;88.95
50087;BME280;35967;50.718;7.050;2024-03-08T07:16:01;100607.38;;;3.11;87.16
50087;BME280;35967;50.718;7.050;2024-03-08T07:26:04;100595.03;;;3.73;82.47
50087;BME280;35967;50.718;7.050;2024-03-08T07:36:09;100592.69;;;4.16;79.80
50087;BME280;35967;50.718;7.050;2024-03-08T07:46:12;100569.81;;;4.49;76.69
50087;BME280;35967;50.718;7.050;2024-03-08T07:56:17;100555.38;;;4.68;75.11
50087;BME280;35967;50.718;7.050;2024-03-08T08:06:21;100550.28;;;4.94;73.65
50087;BME280;35967;50.718;7.050;2024-03-08T08:16:25;100541.75;;;5.17;72.06
50087;BME280;35967;50.718;7.050;2024-03-08T08:26:28;100526.34;;;5.54;70.73
50087;BME280;35967;50.718;7.050;2024-03-08T08:36:34;100506.66;;;5.78;69.33
50087;BME280;35967;50.718;7.050;2024-03-08T08:46:38;100489.47;;;6.09;68.38
50087;BME280;35967;50.718;7.050;2024-03-08T08:56:44;100491.13;;;6.23;67.16
50087;BME280;35967;50.718;7.050;2024-03-08T09:06:49;100481.34;;;6.70;66.78
50087;BME280;35967;50.718;7.050;2024-03-08T09:16:54;100463.25;;;6.90;64.25
50087;BME280;35967;50.718;7.050;2024-03-08T09:26:57;100460.50;;;7.10;63.14
50087;BME280;35967;50.718;7.050;2024-03-08T09:37:03;100446.56;;;7.34;63.27
50087;BME280;35967;50.718;7.050;2024-03-08T09:47:06;100427.72;;;7.38;62.28
50087;BME280;35967;50.718;7.050;2024-03-08T09:57:12;100413.88;;;7.53;60.18
50087;BME280;35967;50.718;7.050;2024-03-08T10:07:15;100407.69;;;7.70;58.54
50087;BME280;35967;50.718;7.050;2024-03-08T10:17:20;100384.84;;;8.12;57.74
50087;BME280;35967;50.718;7.050;2024-03-08T10:27:23;100365.13;;;8.66;55.92
50087;BME280;35967;50.718;7.050;2024-03-08T10:37:30;100354.41;;;8.42;56.52
50087;BME280;35967;50.718;7.050;2024-03-08T10:47:40;100357.63;;;8.53;55.19
50087;BME280;35967;50.718;7.050;2024-03-08T10:57:45;100349.50;;;8.77;54.13
50087;BME280;35967;50.718;7.050;2024-03-08T11:07:50;100335.63;;;8.87;53.63
50087;BME280;35967;50.718;7.050;2024-03-08T11:17:58;100302.63;;;9.49;53.20
50087;BME280;35967;50.718;7.050;2024-03-08T11:28:15;100301.63;;;9.17;51.38
50087;BME280;35967;50.718;7.050;2024-03-08T11:38:22;100275.47;;;10.40;49.86
50087;BME280;35967;50.718;7.050;2024-03-08T11:48:25;100257.44;;;10.72;49.19
50087;BME280;35967;50.718;7.050;2024-03-08T11:58:30;100250.19;;;10.23;49.06
50087;BME280;35967;50.718;7.050;2024-03-08T12:08:35;100229.16;;;10.40;49.12
50087;BME280;35967;50.718;7.050;2024-03-08T12:18:40;100232.16;;;10.56;47.91
50087;BME280;35967;50.718;7.050;2024-03-08T12:28:45;100217.13;;;10.71;47.78
50087;BME280;35967;50.718;7.050;2024-03-08T12:38:53;100191.97;;;11.08;46.67
50087;BME280;35967;50.718;7.050;2024-03-08T12:48:57;100176.50;;;11.34;45.51
50087;BME280;35967;50.718;7.050;2024-03-08T12:59:03;100173.25;;;11.55;45.94
50087;BME280;35967;50.718;7.050;2024-03-08T13:09:06;100146.59;;;11.30;46.07
50087;BME280;35967;50.718;7.050;2024-03-08T13:19:11;100132.81;;;11.57;44.53
50087;BME280;35967;50.718;7.050;2024-03-08T13:29:14;100115.66;;;11.05;45.69
50087;BME280;35967;50.718;7.050;2024-03-08T13:39:19;100105.09;;;11.63;46.12
50087;BME280;35967;50.718;7.050;2024-03-08T13:49:23;100075.94;;;11.61;45.81
50087;BME280;35967;50.718;7.050;2024-03-08T13:59:29;100056.44;;;11.54;44.73
50087;BME280;35967;50.718;7.050;2024-03-08T14:09:32;100035.16;;;11.49;45.34
50087;BME280;35967;50.718;7.050;2024-03-08T14:19:40;100029.53;;;11.61;45.16
50087;BME280;35967;50.718;7.050;2024-03-08T14:29:44;100014.06;;;11.38;44.88
50087;BME280;35967;50.718;7.050;2024-03-08T14:39:49;100009.16;;;11.31;45.95
50087;BME280;35967;50.718;7.050;2024-03-08T14:49:54;99986.66;;;11.11;46.38
50087;BME280;35967;50.718;7.050;2024-03-08T14:59:59;99965.38;;;11.06;46.41
50087;BME280;35967;50.718;7.050;2024-03-08T15:10:07;99968.97;;;10.77;46.97
50087;BME280;35967;50.718;7.050;2024-03-08T15:20:14;99952.50;;;10.81;47.28
50087;BME280;35967;50.718;7.050;2024-03-08T15:30:19;99943.53;;;10.67;47.56
50087;BME280;35967;50.718;7.050;2024-03-08T15:40:30;99937.81;;;10.59;47.59
50087;BME280;35967;50.718;7.050;2024-03-08T15:50:37;99930.41;;;10.50;48.31
50087;BME280;35967;50.718;7.050;2024-03-08T16:00:41;99920.78;;;10.55;48.71
50087;BME280;35967;50.718;7.050;2024-03-08T16:10:49;99923.97;;;10.36;48.70
50087;BME280;35967;50.718;7.050;2024-03-08T16:20:58;99914.31;;;10.16;49.24
50087;BME280;35967;50.718;7.050;2024-03-08T16:31:01;99899.06;;;10.10;49.19
50087;BME280;35967;50.718;7.050;2024-03-08T16:41:07;99903.72;;;9.99;50.13
50087;BME280;35967;50.718;7.050;2024-03-08T16:51:10;99895.41;;;9.90;50.90
50087;BME280;35967;50.718;7.050;2024-03-08T17:01:15;99897.53;;;9.77;51.08
50087;BME280;35967;50.718;7.050;2024-03-08T17:11:18;99902.75;;;9.74;51.43
50087;BME280;35967;50.718;7.050;2024-03-08T17:21:24;99895.53;;;9.59;52.31
50087;BME280;35967;50.718;7.050;2024-03-08T17:31:29;99901.22;;;9.40;52.69
50087;BME280;35967;50.718;7.050;2024-03-08T17:41:35;99896.38;;;9.29;53.43
50087;BME280;35967;50.718;7.050;2024-03-08T17:51:38;99902.69;;;9.19;53.75
50087;BME280;35967;50.718;7.050;2024-03-08T18:01:42;99892.69;;;9.10;54.67
50087;BME280;35967;50.718;7.050;2024-03-08T18:11:47;99888.66;;;9.01;55.05
50087;BME280;35967;50.718;7.050;2024-03-08T18:21:52;99883.09;;;8.85;55.58
50087;BME280;35967;50.718;7.050;2024-03-08T18:31:55;99873.19;;;8.73;56.39
50087;BME280;35967;50.718;7.050;2024-03-08T18:42:00;99868.34;;;8.60;56.72
50087;BME280;35967;50.718;7.050;2024-03-08T18:52:04;99854.06;;;8.51;57.55
50087;BME280;35967;50.718;7.050;2024-03-08T19:02:09;99847.53;;;8.38;57.40
50087;BME280;35967;50.718;7.050;2024-03-08T19:12:15;99841.22;;;8.18;58.56
50087;BME280;35967;50.718;7.050;2024-03-08T19:22:21;99828.69;;;8.06;59.71
50087;BME280;35967;50.718;7.050;2024-03-08T19:32:25;99811.19;;;7.89;59.34
50087;BME280;35967;50.718;7.050;2024-03-08T19:42:30;99805.34;;;7.82;59.85
50087;BME280;35967;50.718;7.050;2024-03-08T19:52:33;99795.47;;;7.67;60.79
50087;BME280;35967;50.718;7.050;2024-03-08T20:02:41;99777.41;;;7.37;62.33
50087;BME280;35967;50.718;7.050;2024-03-08T20:12:45;99767.03;;;7.43;62.22
50087;BME280;35967;50.718;7.050;2024-03-08T20:22:50;99767.34;;;7.29;62.01
50087;BME280;35967;50.718;7.050;2024-03-08T20:32:54;99753.00;;;7.22;62.07
50087;BME280;35967;50.718;7.050;2024-03-08T20:42:59;99746.22;;;7.19;63.03
50087;BME280;35967;50.718;7.050;2024-03-08T20:53:04;99748.41;;;6.99;64.31
50087;BME280;35967;50.718;7.050;2024-03-08T21:03:12;99754.28;;;6.63;66.97
50087;BME280;35967;50.718;7.050;2024-03-08T21:13:16;99752.31;;;6.34;68.69
50087;BME280;35967;50.718;7.050;2024-03-08T21:23:21;99759.84;;;5.91;71.19
50087;BME280;35967;50.718;7.050;2024-03-08T21:33:24;99758.63;;;5.62;72.96
50087;BME280;35967;50.718;7.050;2024-03-08T21:43:29;99766.72;;;5.36;74.86
50087;BME280;35967;50.718;7.050;2024-03-08T21:53:35;99761.94;;;5.13;75.35
50087;BME280;35967;50.718;7.050;2024-03-08T22:03:41;99765.72;;;5.45;75.86
50087;BME280;35967;50.718;7.050;2024-03-08T22:13:45;99764.09;;;5.41;75.05
50087;BME280;35967;50.718;7.050;2024-03-08T22:23:51;99748.19;;;5.23;74.35
50087;BME280;35967;50.718;7.050;2024-03-08T22:33:55;99732.91;;;5.20;75.58
50087;BME280;35967;50.718;7.050;2024-03-08T22:43:59;99737.50;;;4.96;75.71
50087;BME280;35967;50.718;7.050;2024-03-08T22:54:02;99739.97;;;5.04;76.40
50087;BME280;35967;50.718;7.050;2024-03-08T23:04:07;99726.34;;;5.03;76.81
50087;BME280;35967;50.718;7.050;2024-03-08T23:14:10;99711.84;;;5.09;76.66
50087;BME280;35967;50.718;7.050;2024-03-08T23:24:15;99711.34;;;4.82;77.02
50087;BME280;35967;50.718;7.050;2024-03-08T23:34:19;99719.34;;;4.57;77.78
50087;BME280;35967;50.718;7.050;2024-03-08T23:44:23;99736.94;;;4.74;78.97
50087;BME280;35967;50.718;7.050;2024-03-08T23:54:26;99738.69;;;4.70;79.11
